sensor_id;sensor_type;location;lat;lon;timestamp;P1;durP1;ratioP1;P2;durP2;ratioP2
11427;SDS011;5770;44.504;11.346;2022-10-17T00:02:19;9.35;;;8.30;;
11427;SDS011;5770;44.504;11.346;2022-10-17T00:04:46;11.15;;;8.63;;
11427;SDS011;5770;44.504;11.346;2022-10-17T00:07:13;10.18;;;8.25;;
11427;SDS011;5770;44.504;11.346;2022-10-17T00:09:41;10.13;;;8.60;;
11427;SDS011;5770;44.504;11.346;2022-10-17T00:12:08;13.05;;;8.65;;
11427;SDS011;5770;44.504;11.346;2022-10-17T00:14:36;9.30;;;8.15;;
11427;SDS011;5770;44.504;11.346;2022-10-17T00:17:04;12.00;;;8.45;;
11427;SDS011;5770;44.504;11.346;2022-10-17T00:19:31;9.30;;;8.18;;
11427;SDS011;5770;44.504;11.346;2022-10-17T00:21:58;10.57;;;8.55;;
11427;SDS011;5770;44.504;11.346;2022-10-17T00:24:25;11.93;;;8.40;;
11427;SDS011;5770;44.504;11.346;2022-10-17T00:26:53;10.95;;;7.97;;
11427;SDS011;5770;44.504;11.346;2022-10-17T00:29:20;9.85;;;8.40;;
11427;SDS011;5770;44.504;11.346;2022-10-17T00:31:48;10.50;;;8.65;;
11427;SDS011;5770;44.504;11.346;2022-10-17T00:34:15;10.13;;;9.13;;
11427;SDS011;5770;44.504;11.346;2022-10-17T00:36:42;13.52;;;9.07;;
11427;SDS011;5770;44.504;11.346;2022-10-17T00:39:09;11.88;;;8.55;;
11427;SDS011;5770;44.504;11.346;2022-10-17T00:41:37;12.43;;;9.27;;
11427;SDS011;5770;44.504;11.346;2022-10-17T00:44:05;11.93;;;8.95;;
11427;SDS011;5770;44.504;11.346;2022-10-17T00:46:33;14.55;;;9.07;;
11427;SDS011;5770;44.504;11.346;2022-10-17T00:49:03;13.32;;;9.25;;
11427;SDS011;5770;44.504;11.346;2022-10-17T00:51:33;12.90;;;9.43;;
11427;SDS011;5770;44.504;11.346;2022-10-17T00:54:03;14.95;;;9.93;;
11427;SDS011;5770;44.504;11.346;2022-10-17T00:56:31;19.92;;;10.48;;
11427;SDS011;5770;44.504;11.346;2022-10-17T00:58:59;14.07;;;9.18;;
11427;SDS011;5770;44.504;11.346;2022-10-17T01:01:27;11.10;;;8.77;;
11427;SDS011;5770;44.504;11.346;2022-10-17T01:03:54;10.57;;;9.10;;
11427;SDS011;5770;44.504;11.346;2022-10-17T01:06:23;17.85;;;9.98;;
11427;SDS011;5770;44.504;11.346;2022-10-17T01:08:50;30.30;;;10.73;;
11427;SDS011;5770;44.504;11.346;2022-10-17T01:11:20;19.00;;;9.93;;
11427;SDS011;5770;44.504;11.346;2022-10-17T01:14:00;34.35;;;11.48;;
11427;SDS011;5770;44.504;11.346;2022-10-17T01:16:34;15.07;;;9.00;;
11427;SDS011;5770;44.504;11.346;2022-10-17T01:19:07;29.60;;;9.73;;
11427;SDS011;5770;44.504;11.346;2022-10-17T01:21:54;17.83;;;9.77;;
11427;SDS011;5770;44.504;11.346;2022-10-17T01:29:56;20.92;;;9.63;;
11427;SDS011;5770;44.504;11.346;2022-10-17T01:32:28;22.90;;;10.32;;
11427;SDS011;5770;44.504;11.346;2022-10-17T01:35:01;15.45;;;9.75;;
11427;SDS011;5770;44.504;11.346;2022-10-17T01:37:37;16.48;;;9.43;;
11427;SDS011;5770;44.504;11.346;2022-10-17T01:40:08;13.48;;;9.15;;
11427;SDS011;5770;44.504;11.346;2022-10-17T01:42:41;14.63;;;9.13;;
11427;SDS011;5770;44.504;11.346;2022-10-17T01:45:13;11.15;;;9.20;;
11427;SDS011;5770;44.504;11.346;2022-10-17T01:47:46;10.77;;;9.00;;
11427;SDS011;5770;44.504;11.346;2022-10-17T01:50:17;10.15;;;8.57;;
11427;SDS011;5770;44.504;11.346;2022-10-17T01:52:49;13.05;;;8.88;;
11427;SDS011;5770;44.504;11.346;2022-10-17T01:55:19;14.63;;;9.07;;
11427;SDS011;5770;44.504;11.346;2022-10-17T01:57:49;9.65;;;8.10;;
11427;SDS011;5770;44.504;11.346;2022-10-17T02:00:20;10.93;;;9.20;;
11427;SDS011;5770;44.504;11.346;2022-10-17T02:02:50;11.52;;;8.57;;
11427;SDS011;5770;44.504;11.346;2022-10-17T02:05:21;12.07;;;8.77;;
11427;SDS011;5770;44.504;11.346;2022-10-17T02:07:53;10.88;;;8.45;;
11427;SDS011;5770;44.504;11.346;2022-10-17T02:10:21;10.95;;;8.98;;
11427;SDS011;5770;44.504;11.346;2022-10-17T02:12:57;11.55;;;8.07;;
11427;SDS011;5770;44.504;11.346;2022-10-17T02:15:33;11.13;;;8.18;;
11427;SDS011;5770;44.504;11.346;2022-10-17T02:18:17;9.70;;;8.07;;
11427;SDS011;5770;44.504;11.346;2022-10-17T02:20:59;9.38;;;8.00;;
11427;SDS011;5770;44.504;11.346;2022-10-17T02:23:30;11.02;;;8.27;;
11427;SDS011;5770;44.504;11.346;2022-10-17T02:26:06;13.15;;;8.38;;
11427;SDS011;5770;44.504;11.346;2022-10-17T02:28:38;9.68;;;7.93;;
11427;SDS011;5770;44.504;11.346;2022-10-17T02:31:09;12.43;;;8.52;;
11427;SDS011;5770;44.504;11.346;2022-10-17T02:33:42;9.30;;;7.88;;
11427;SDS011;5770;44.504;11.346;2022-10-17T02:36:13;9.75;;;7.88;;
11427;SDS011;5770;44.504;11.346;2022-10-17T02:38:44;9.40;;;8.43;;
11427;SDS011;5770;44.504;11.346;2022-10-17T02:41:12;10.95;;;8.48;;
11427;SDS011;5770;44.504;11.346;2022-10-17T02:43:42;14.23;;;8.48;;
11427;SDS011;5770;44.504;11.346;2022-10-17T02:46:13;11.55;;;8.70;;
11427;SDS011;5770;44.504;11.346;2022-10-17T02:48:47;12.23;;;8.00;;
11427;SDS011;5770;44.504;11.346;2022-10-17T02:51:20;9.57;;;8.00;;
11427;SDS011;5770;44.504;11.346;2022-10-17T02:53:55;12.02;;;8.30;;
11427;SDS011;5770;44.504;11.346;2022-10-17T02:56:29;10.15;;;8.68;;
11427;SDS011;5770;44.504;11.346;2022-10-17T02:59:02;9.82;;;8.80;;
11427;SDS011;5770;44.504;11.346;2022-10-17T03:01:31;9.85;;;8.40;;
11427;SDS011;5770;44.504;11.346;2022-10-17T03:04:05;9.10;;;7.93;;
11427;SDS011;5770;44.504;11.346;2022-10-17T03:06:33;11.88;;;8.57;;
11427;SDS011;5770;44.504;11.346;2022-10-17T03:09:00;11.27;;;8.82;;
11427;SDS011;5770;44.504;11.346;2022-10-17T03:11:27;9.57;;;8.35;;
11427;SDS011;5770;44.504;11.346;2022-10-17T03:13:54;12.60;;;10.13;;
11427;SDS011;5770;44.504;11.346;2022-10-17T03:16:21;10.73;;;9.45;;
11427;SDS011;5770;44.504;11.346;2022-10-17T03:18:48;11.80;;;9.07;;
11427;SDS011;5770;44.504;11.346;2022-10-17T03:21:17;10.20;;;8.55;;
11427;SDS011;5770;44.504;11.346;2022-10-17T03:23:45;12.50;;;9.70;;
11427;SDS011;5770;44.504;11.346;2022-10-17T03:26:12;11.55;;;8.48;;
11427;SDS011;5770;44.504;11.346;2022-10-17T03:28:39;12.60;;;9.02;;
11427;SDS011;5770;44.504;11.346;2022-10-17T03:31:07;10.25;;;9.00;;
11427;SDS011;5770;44.504;11.346;2022-10-17T03:33:35;11.02;;;8.57;;
11427;SDS011;5770;44.504;11.346;2022-10-17T03:36:06;11.85;;;8.13;;
11427;SDS011;5770;44.504;11.346;2022-10-17T03:38:34;9.15;;;7.85;;
11427;SDS011;5770;44.504;11.346;2022-10-17T03:41:02;10.57;;;7.55;;
11427;SDS011;5770;44.504;11.346;2022-10-17T03:43:30;10.55;;;8.85;;
11427;SDS011;5770;44.504;11.346;2022-10-17T03:45:57;9.55;;;8.38;;
11427;SDS011;5770;44.504;11.346;2022-10-17T03:48:25;9.15;;;7.72;;
11427;SDS011;5770;44.504;11.346;2022-10-17T03:50:57;13.93;;;8.32;;
11427;SDS011;5770;44.504;11.346;2022-10-17T03:53:25;12.18;;;8.38;;
11427;SDS011;5770;44.504;11.346;2022-10-17T03:55:54;10.02;;;8.18;;
11427;SDS011;5770;44.504;11.346;2022-10-17T03:58:21;12.93;;;8.23;;
11427;SDS011;5770;44.504;11.346;2022-10-17T04:00:48;14.63;;;8.57;;
11427;SDS011;5770;44.504;11.346;2022-10-17T04:03:16;10.57;;;8.20;;
11427;SDS011;5770;44.504;11.346;2022-10-17T04:05:43;9.20;;;8.30;;
11427;SDS011;5770;44.504;11.346;2022-10-17T04:08:11;13.38;;;8.68;;
11427;SDS011;5770;44.504;11.346;2022-10-17T04:10:38;8.88;;;7.97;;
11427;SDS011;5770;44.504;11.346;2022-10-17T04:13:07;10.27;;;8.43;;
11427;SDS011;5770;44.504;11.346;2022-10-17T04:15:34;14.18;;;8.43;;
11427;SDS011;5770;44.504;11.346;2022-10-17T04:18:01;13.07;;;8.60;;
11427;SDS011;5770;44.504;11.346;2022-10-17T04:20:28;11.77;;;9.00;;
11427;SDS011;5770;44.504;11.346;2022-10-17T04:22:56;10.75;;;8.38;;
11427;SDS011;5770;44.504;11.346;2022-10-17T04:25:23;8.60;;;7.70;;
11427;SDS011;5770;44.504;11.346;2022-10-17T04:27:50;12.05;;;8.60;;
11427;SDS011;5770;44.504;11.346;2022-10-17T04:30:18;8.43;;;7.60;;
11427;SDS011;5770;44.504;11.346;2022-10-17T04:32:45;12.50;;;8.35;;
11427;SDS011;5770;44.504;11.346;2022-10-17T04:35:12;9.85;;;7.53;;
11427;SDS011;5770;44.504;11.346;2022-10-17T04:37:40;9.40;;;7.68;;
11427;SDS011;5770;44.504;11.346;2022-10-17T04:40:07;12.68;;;8.10;;
11427;SDS011;5770;44.504;11.346;2022-10-17T04:42:35;11.73;;;7.80;;
11427;SDS011;5770;44.504;11.346;2022-10-17T04:45:02;12.07;;;8.00;;
11427;SDS011;5770;44.504;11.346;2022-10-17T04:47:31;10.43;;;7.88;;
11427;SDS011;5770;44.504;11.346;2022-10-17T04:49:58;11.80;;;8.35;;
11427;SDS011;5770;44.504;11.346;2022-10-17T04:52:26;9.88;;;7.43;;
11427;SDS011;5770;44.504;11.346;2022-10-17T04:54:53;9.88;;;7.90;;
11427;SDS011;5770;44.504;11.346;2022-10-17T04:57:20;12.18;;;8.00;;
11427;SDS011;5770;44.504;11.346;2022-10-17T04:59:47;9.43;;;8.38;;
11427;SDS011;5770;44.504;11.346;2022-10-17T05:02:14;9.48;;;7.50;;
11427;SDS011;5770;44.504;11.346;2022-10-17T05:04:43;9.50;;;8.13;;
11427;SDS011;5770;44.504;11.346;2022-10-17T05:07:10;10.05;;;8.80;;
11427;SDS011;5770;44.504;11.346;2022-10-17T05:09:38;9.60;;;8.05;;
11427;SDS011;5770;44.504;11.346;2022-10-17T05:12:05;10.98;;;8.02;;
11427;SDS011;5770;44.504;11.346;2022-10-17T05:14:32;11.30;;;9.57;;
11427;SDS011;5770;44.504;11.346;2022-10-17T05:16:59;11.55;;;9.35;;
11427;SDS011;5770;44.504;11.346;2022-10-17T05:19:26;9.48;;;8.48;;
11427;SDS011;5770;44.504;11.346;2022-10-17T05:21:55;14.02;;;9.00;;
11427;SDS011;5770;44.504;11.346;2022-10-17T05:24:22;10.10;;;8.90;;
11427;SDS011;5770;44.504;11.346;2022-10-17T05:26:49;11.50;;;8.75;;
11427;SDS011;5770;44.504;11.346;2022-10-17T05:29:19;12.10;;;9.27;;
11427;SDS011;5770;44.504;11.346;2022-10-17T05:31:46;13.73;;;9.70;;
11427;SDS011;5770;44.504;11.346;2022-10-17T05:34:13;11.95;;;9.35;;
11427;SDS011;5770;44.504;11.346;2022-10-17T05:36:40;12.80;;;9.60;;
11427;SDS011;5770;44.504;11.346;2022-10-17T05:39:09;14.10;;;9.30;;
11427;SDS011;5770;44.504;11.346;2022-10-17T05:41:37;11.73;;;9.48;;
11427;SDS011;5770;44.504;11.346;2022-10-17T05:44:04;13.80;;;9.45;;
11427;SDS011;5770;44.504;11.346;2022-10-17T05:46:32;16.13;;;9.45;;
11427;SDS011;5770;44.504;11.346;2022-10-17T05:49:05;14.23;;;9.82;;
11427;SDS011;5770;44.504;11.346;2022-10-17T05:51:32;12.25;;;9.57;;
11427;SDS011;5770;44.504;11.346;2022-10-17T05:53:59;12.23;;;10.02;;
11427;SDS011;5770;44.504;11.346;2022-10-17T05:56:28;16.05;;;9.80;;
11427;SDS011;5770;44.504;11.346;2022-10-17T05:58:56;19.50;;;9.90;;
11427;SDS011;5770;44.504;11.346;2022-10-17T06:01:23;14.43;;;9.55;;
11427;SDS011;5770;44.504;11.346;2022-10-17T06:03:50;13.68;;;9.50;;
11427;SDS011;5770;44.504;11.346;2022-10-17T06:06:17;12.65;;;9.20;;
11427;SDS011;5770;44.504;11.346;2022-10-17T06:08:45;16.80;;;9.10;;
11427;SDS011;5770;44.504;11.346;2022-10-17T06:11:14;20.17;;;10.55;;
11427;SDS011;5770;44.504;11.346;2022-10-17T06:13:43;23.15;;;11.07;;
11427;SDS011;5770;44.504;11.346;2022-10-17T06:16:10;22.23;;;10.25;;
11427;SDS011;5770;44.504;11.346;2022-10-17T06:18:38;15.10;;;10.63;;
11427;SDS011;5770;44.504;11.346;2022-10-17T06:21:06;12.80;;;9.60;;
11427;SDS011;5770;44.504;11.346;2022-10-17T06:23:37;14.93;;;9.73;;
11427;SDS011;5770;44.504;11.346;2022-10-17T06:26:05;14.10;;;9.85;;
11427;SDS011;5770;44.504;11.346;2022-10-17T06:28:32;12.90;;;9.50;;
11427;SDS011;5770;44.504;11.346;2022-10-17T06:31:04;19.77;;;9.68;;
11427;SDS011;5770;44.504;11.346;2022-10-17T06:33:32;11.85;;;8.98;;
11427;SDS011;5770;44.504;11.346;2022-10-17T06:35:59;14.32;;;9.68;;
11427;SDS011;5770;44.504;11.346;2022-10-17T06:38:26;11.10;;;9.23;;
11427;SDS011;5770;44.504;11.346;2022-10-17T06:40:54;14.15;;;9.68;;
11427;SDS011;5770;44.504;11.346;2022-10-17T06:43:29;14.07;;;10.02;;
11427;SDS011;5770;44.504;11.346;2022-10-17T06:45:56;18.30;;;9.13;;
11427;SDS011;5770;44.504;11.346;2022-10-17T06:48:25;11.20;;;9.18;;
11427;SDS011;5770;44.504;11.346;2022-10-17T06:50:52;13.38;;;9.23;;
11427;SDS011;5770;44.504;11.346;2022-10-17T06:53:21;14.50;;;10.88;;
11427;SDS011;5770;44.504;11.346;2022-10-17T06:55:50;14.48;;;9.65;;
11427;SDS011;5770;44.504;11.346;2022-10-17T06:58:18;14.27;;;9.77;;
11427;SDS011;5770;44.504;11.346;2022-10-17T07:00:45;11.93;;;9.35;;
11427;SDS011;5770;44.504;11.346;2022-10-17T07:03:12;13.20;;;9.77;;
11427;SDS011;5770;44.504;11.346;2022-10-17T07:05:41;14.40;;;11.38;;
11427;SDS011;5770;44.504;11.346;2022-10-17T07:08:08;17.88;;;11.65;;
11427;SDS011;5770;44.504;11.346;2022-10-17T07:10:36;16.85;;;11.32;;
11427;SDS011;5770;44.504;11.346;2022-10-17T07:13:03;11.75;;;10.60;;
11427;SDS011;5770;44.504;11.346;2022-10-17T07:15:30;15.13;;;10.05;;
11427;SDS011;5770;44.504;11.346;2022-10-17T07:17:58;18.40;;;11.68;;
11427;SDS011;5770;44.504;11.346;2022-10-17T07:20:25;11.75;;;10.52;;
11427;SDS011;5770;44.504;11.346;2022-10-17T07:22:54;14.77;;;11.10;;
11427;SDS011;5770;44.504;11.346;2022-10-17T07:25:21;20.80;;;12.95;;
11427;SDS011;5770;44.504;11.346;2022-10-17T07:27:48;14.27;;;11.82;;
11427;SDS011;5770;44.504;11.346;2022-10-17T07:30:16;21.08;;;13.00;;
11427;SDS011;5770;44.504;11.346;2022-10-17T07:32:43;18.73;;;13.73;;
11427;SDS011;5770;44.504;11.346;2022-10-17T07:35:11;14.77;;;11.70;;
11427;SDS011;5770;44.504;11.346;2022-10-17T07:37:38;18.98;;;13.65;;
11427;SDS011;5770;44.504;11.346;2022-10-17T07:40:07;20.25;;;13.02;;
11427;SDS011;5770;44.504;11.346;2022-10-17T07:42:35;15.32;;;13.73;;
11427;SDS011;5770;44.504;11.346;2022-10-17T07:45:03;17.63;;;13.20;;
11427;SDS011;5770;44.504;11.346;2022-10-17T07:47:31;19.95;;;14.05;;
11427;SDS011;5770;44.504;11.346;2022-10-17T07:49:59;25.60;;;15.80;;
11427;SDS011;5770;44.504;11.346;2022-10-17T07:52:30;17.88;;;13.88;;
11427;SDS011;5770;44.504;11.346;2022-10-17T07:54:57;21.27;;;15.48;;
11427;SDS011;5770;44.504;11.346;2022-10-17T07:57:26;17.63;;;14.38;;
11427;SDS011;5770;44.504;11.346;2022-10-17T07:59:58;31.77;;;18.85;;
11427;SDS011;5770;44.504;11.346;2022-10-17T08:02:25;29.42;;;19.15;;
11427;SDS011;5770;44.504;11.346;2022-10-17T08:04:56;28.33;;;20.15;;
11427;SDS011;5770;44.504;11.346;2022-10-17T08:07:33;28.40;;;21.23;;
11427;SDS011;5770;44.504;11.346;2022-10-17T08:10:01;25.25;;;19.65;;
11427;SDS011;5770;44.504;11.346;2022-10-17T08:12:29;31.25;;;19.67;;
11427;SDS011;5770;44.504;11.346;2022-10-17T08:14:58;23.50;;;18.73;;
11427;SDS011;5770;44.504;11.346;2022-10-17T08:17:25;25.13;;;19.40;;
11427;SDS011;5770;44.504;11.346;2022-10-17T08:19:53;25.75;;;19.25;;
11427;SDS011;5770;44.504;11.346;2022-10-17T08:22:20;49.72;;;20.05;;
11427;SDS011;5770;44.504;11.346;2022-10-17T08:24:47;47.25;;;20.75;;
11427;SDS011;5770;44.504;11.346;2022-10-17T08:27:15;27.30;;;20.35;;
11427;SDS011;5770;44.504;11.346;2022-10-17T08:29:49;35.58;;;21.30;;
11427;SDS011;5770;44.504;11.346;2022-10-17T08:32:17;33.20;;;21.02;;
11427;SDS011;5770;44.504;11.346;2022-10-17T08:34:45;71.57;;;22.45;;
11427;SDS011;5770;44.504;11.346;2022-10-17T08:37:13;35.72;;;21.63;;
11427;SDS011;5770;44.504;11.346;2022-10-17T08:39:40;30.30;;;20.58;;
11427;SDS011;5770;44.504;11.346;2022-10-17T08:42:13;25.05;;;20.02;;
11427;SDS011;5770;44.504;11.346;2022-10-17T08:45:09;26.42;;;20.67;;
11427;SDS011;5770;44.504;11.346;2022-10-17T08:47:39;26.08;;;20.52;;
11427;SDS011;5770;44.504;11.346;2022-10-17T08:50:10;27.17;;;20.73;;
11427;SDS011;5770;44.504;11.346;2022-10-17T08:52:39;24.05;;;19.33;;
11427;SDS011;5770;44.504;11.346;2022-10-17T08:55:13;25.58;;;21.25;;
11427;SDS011;5770;44.504;11.346;2022-10-17T08:57:41;29.48;;;23.38;;
11427;SDS011;5770;44.504;11.346;2022-10-17T09:00:13;27.35;;;23.00;;
11427;SDS011;5770;44.504;11.346;2022-10-17T09:02:43;32.42;;;23.33;;
11427;SDS011;5770;44.504;11.346;2022-10-17T09:05:20;32.92;;;22.45;;
11427;SDS011;5770;44.504;11.346;2022-10-17T09:07:52;27.98;;;21.77;;
11427;SDS011;5770;44.504;11.346;2022-10-17T09:10:24;33.05;;;20.38;;
11427;SDS011;5770;44.504;11.346;2022-10-17T09:12:58;26.30;;;20.13;;
11427;SDS011;5770;44.504;11.346;2022-10-17T09:15:36;27.65;;;22.02;;
11427;SDS011;5770;44.504;11.346;2022-10-17T09:18:07;29.13;;;21.92;;
11427;SDS011;5770;44.504;11.346;2022-10-17T09:20:39;27.98;;;20.88;;
11427;SDS011;5770;44.504;11.346;2022-10-17T09:23:09;26.50;;;20.35;;
11427;SDS011;5770;44.504;11.346;2022-10-17T09:25:40;27.50;;;20.10;;
11427;SDS011;5770;44.504;11.346;2022-10-17T09:28:11;26.88;;;20.00;;
11427;SDS011;5770;44.504;11.346;2022-10-17T09:30:45;23.92;;;19.83;;
11427;SDS011;5770;44.504;11.346;2022-10-17T09:33:22;31.88;;;22.08;;
11427;SDS011;5770;44.504;11.346;2022-10-17T09:35:52;26.10;;;20.55;;
11427;SDS011;5770;44.504;11.346;2022-10-17T09:38:21;28.65;;;21.85;;
11427;SDS011;5770;44.504;11.346;2022-10-17T09:40:49;31.52;;;23.08;;
11427;SDS011;5770;44.504;11.346;2022-10-17T09:43:25;30.08;;;22.20;;
11427;SDS011;5770;44.504;11.346;2022-10-17T09:48:42;32.08;;;25.25;;
11427;SDS011;5770;44.504;11.346;2022-10-17T09:51:11;31.48;;;23.77;;
11427;SDS011;5770;44.504;11.346;2022-10-17T09:53:39;32.05;;;24.17;;
11427;SDS011;5770;44.504;11.346;2022-10-17T09:56:07;35.72;;;24.00;;
11427;SDS011;5770;44.504;11.346;2022-10-17T09:58:39;44.97;;;28.27;;
11427;SDS011;5770;44.504;11.346;2022-10-17T10:01:20;38.25;;;26.92;;
11427;SDS011;5770;44.504;11.346;2022-10-17T10:06:36;36.45;;;27.63;;
11427;SDS011;5770;44.504;11.346;2022-10-17T10:09:04;42.38;;;27.08;;
11427;SDS011;5770;44.504;11.346;2022-10-17T10:11:44;37.28;;;26.83;;
11427;SDS011;5770;44.504;11.346;2022-10-17T10:14:17;42.30;;;28.40;;
11427;SDS011;5770;44.504;11.346;2022-10-17T10:16:46;38.20;;;28.25;;
11427;SDS011;5770;44.504;11.346;2022-10-17T10:19:20;42.05;;;29.15;;
11427;SDS011;5770;44.504;11.346;2022-10-17T10:21:54;48.10;;;29.70;;
11427;SDS011;5770;44.504;11.346;2022-10-17T10:24:27;45.58;;;29.45;;
11427;SDS011;5770;44.504;11.346;2022-10-17T10:26:55;40.58;;;28.80;;
11427;SDS011;5770;44.504;11.346;2022-10-17T10:29:26;46.05;;;27.67;;
11427;SDS011;5770;44.504;11.346;2022-10-17T10:31:55;305.60;;;43.28;;
11427;SDS011;5770;44.504;11.346;2022-10-17T10:34:26;50.30;;;28.85;;
11427;SDS011;5770;44.504;11.346;2022-10-17T10:36:58;39.05;;;29.58;;
11427;SDS011;5770;44.504;11.346;2022-10-17T10:39:31;37.05;;;27.55;;
11427;SDS011;5770;44.504;11.346;2022-10-17T10:42:03;44.25;;;27.52;;
11427;SDS011;5770;44.504;11.346;2022-10-17T10:44:32;36.28;;;26.58;;
11427;SDS011;5770;44.504;11.346;2022-10-17T10:50:16;37.47;;;27.88;;
11427;SDS011;5770;44.504;11.346;2022-10-17T10:52:45;43.03;;;27.88;;
11427;SDS011;5770;44.504;11.346;2022-10-17T10:55:17;36.35;;;27.63;;
11427;SDS011;5770;44.504;11.346;2022-10-17T10:57:47;31.48;;;27.02;;
11427;SDS011;5770;44.504;11.346;2022-10-17T11:00:16;33.40;;;26.20;;
11427;SDS011;5770;44.504;11.346;2022-10-17T11:02:46;35.05;;;26.58;;
11427;SDS011;5770;44.504;11.346;2022-10-17T11:05:19;34.30;;;27.23;;
11427;SDS011;5770;44.504;11.346;2022-10-17T11:07:49;39.25;;;25.63;;
11427;SDS011;5770;44.504;11.346;2022-10-17T11:10:18;33.72;;;26.80;;
11427;SDS011;5770;44.504;11.346;2022-10-17T11:12:47;37.05;;;26.00;;
11427;SDS011;5770;44.504;11.346;2022-10-17T11:15:18;34.05;;;26.02;;
11427;SDS011;5770;44.504;11.346;2022-10-17T11:17:49;31.92;;;24.50;;
11427;SDS011;5770;44.504;11.346;2022-10-17T11:20:20;30.13;;;23.85;;
11427;SDS011;5770;44.504;11.346;2022-10-17T11:22:51;30.55;;;25.05;;
11427;SDS011;5770;44.504;11.346;2022-10-17T11:25:30;32.08;;;23.15;;
11427;SDS011;5770;44.504;11.346;2022-10-17T11:27:58;29.90;;;23.05;;
11427;SDS011;5770;44.504;11.346;2022-10-17T11:30:29;34.33;;;23.80;;
11427;SDS011;5770;44.504;11.346;2022-10-17T11:32:58;32.58;;;24.00;;
11427;SDS011;5770;44.504;11.346;2022-10-17T11:35:29;32.50;;;25.30;;
11427;SDS011;5770;44.504;11.346;2022-10-17T11:37:57;35.35;;;25.15;;
11427;SDS011;5770;44.504;11.346;2022-10-17T11:40:28;33.65;;;24.27;;
11427;SDS011;5770;44.504;11.346;2022-10-17T11:43:00;31.55;;;22.30;;
11427;SDS011;5770;44.504;11.346;2022-10-17T11:45:32;31.17;;;21.90;;
11427;SDS011;5770;44.504;11.346;2022-10-17T11:48:03;28.83;;;22.45;;
11427;SDS011;5770;44.504;11.346;2022-10-17T11:50:34;38.90;;;24.30;;
11427;SDS011;5770;44.504;11.346;2022-10-17T11:53:04;30.52;;;23.40;;
11427;SDS011;5770;44.504;11.346;2022-10-17T11:55:33;36.13;;;22.27;;
11427;SDS011;5770;44.504;11.346;2022-10-17T11:58:11;31.17;;;22.85;;
11427;SDS011;5770;44.504;11.346;2022-10-17T12:03:33;32.55;;;22.92;;
11427;SDS011;5770;44.504;11.346;2022-10-17T12:06:07;26.25;;;22.10;;
11427;SDS011;5770;44.504;11.346;2022-10-17T12:08:38;27.50;;;22.08;;
11427;SDS011;5770;44.504;11.346;2022-10-17T12:11:09;24.70;;;21.05;;
11427;SDS011;5770;44.504;11.346;2022-10-17T12:13:47;26.27;;;20.23;;
11427;SDS011;5770;44.504;11.346;2022-10-17T12:19:29;29.90;;;19.73;;
11427;SDS011;5770;44.504;11.346;2022-10-17T12:22:01;24.67;;;20.23;;
11427;SDS011;5770;44.504;11.346;2022-10-17T12:24:39;25.20;;;19.48;;
11427;SDS011;5770;44.504;11.346;2022-10-17T12:29:57;22.98;;;19.27;;
11427;SDS011;5770;44.504;11.346;2022-10-17T12:32:26;25.75;;;17.77;;
11427;SDS011;5770;44.504;11.346;2022-10-17T12:34:53;24.40;;;18.95;;
11427;SDS011;5770;44.504;11.346;2022-10-17T12:43:46;22.77;;;17.80;;
11427;SDS011;5770;44.504;11.346;2022-10-17T12:49:20;23.85;;;17.63;;
11427;SDS011;5770;44.504;11.346;2022-10-17T12:52:09;20.02;;;16.80;;
11427;SDS011;5770;44.504;11.346;2022-10-17T12:54:50;21.27;;;16.33;;
11427;SDS011;5770;44.504;11.346;2022-10-17T12:57:25;22.00;;;16.33;;
11427;SDS011;5770;44.504;11.346;2022-10-17T13:00:03;22.10;;;16.35;;
11427;SDS011;5770;44.504;11.346;2022-10-17T13:02:33;24.15;;;16.77;;
11427;SDS011;5770;44.504;11.346;2022-10-17T13:05:05;58.03;;;21.52;;
11427;SDS011;5770;44.504;11.346;2022-10-17T13:07:34;21.77;;;16.05;;
11427;SDS011;5770;44.504;11.346;2022-10-17T13:10:02;35.17;;;17.40;;
11427;SDS011;5770;44.504;11.346;2022-10-17T13:12:31;166.43;;;27.02;;
11427;SDS011;5770;44.504;11.346;2022-10-17T13:15:04;56.08;;;16.65;;
11427;SDS011;5770;44.504;11.346;2022-10-17T13:17:34;29.73;;;15.48;;
11427;SDS011;5770;44.504;11.346;2022-10-17T13:20:02;24.52;;;15.68;;
11427;SDS011;5770;44.504;11.346;2022-10-17T13:22:34;21.05;;;14.20;;
11427;SDS011;5770;44.504;11.346;2022-10-17T13:25:05;18.75;;;14.93;;
11427;SDS011;5770;44.504;11.346;2022-10-17T13:27:33;16.90;;;14.50;;
11427;SDS011;5770;44.504;11.346;2022-10-17T13:30:02;19.30;;;13.60;;
11427;SDS011;5770;44.504;11.346;2022-10-17T13:32:48;16.23;;;14.10;;
11427;SDS011;5770;44.504;11.346;2022-10-17T13:35:21;18.08;;;13.32;;
11427;SDS011;5770;44.504;11.346;2022-10-17T13:38:04;17.77;;;13.07;;
11427;SDS011;5770;44.504;11.346;2022-10-17T13:40:39;14.85;;;12.70;;
11427;SDS011;5770;44.504;11.346;2022-10-17T13:43:10;17.13;;;12.63;;
11427;SDS011;5770;44.504;11.346;2022-10-17T13:45:43;17.52;;;12.52;;
11427;SDS011;5770;44.504;11.346;2022-10-17T13:48:16;17.08;;;14.23;;
11427;SDS011;5770;44.504;11.346;2022-10-17T13:50:48;17.52;;;12.27;;
11427;SDS011;5770;44.504;11.346;2022-10-17T13:53:18;20.52;;;12.80;;
11427;SDS011;5770;44.504;11.346;2022-10-17T13:55:50;13.77;;;12.35;;
11427;SDS011;5770;44.504;11.346;2022-10-17T13:58:17;18.52;;;11.75;;
11427;SDS011;5770;44.504;11.346;2022-10-17T14:00:45;13.23;;;11.55;;
11427;SDS011;5770;44.504;11.346;2022-10-17T14:03:16;16.35;;;12.10;;
11427;SDS011;5770;44.504;11.346;2022-10-17T14:08:31;18.90;;;11.93;;
11427;SDS011;5770;44.504;11.346;2022-10-17T14:11:12;17.23;;;11.57;;
11427;SDS011;5770;44.504;11.346;2022-10-17T14:13:41;13.75;;;10.85;;
11427;SDS011;5770;44.504;11.346;2022-10-17T14:16:10;13.20;;;11.80;;
11427;SDS011;5770;44.504;11.346;2022-10-17T14:18:44;17.90;;;11.32;;
11427;SDS011;5770;44.504;11.346;2022-10-17T14:21:20;16.98;;;11.23;;
11427;SDS011;5770;44.504;11.346;2022-10-17T14:23:50;14.38;;;11.05;;
11427;SDS011;5770;44.504;11.346;2022-10-17T14:26:18;14.48;;;11.95;;
11427;SDS011;5770;44.504;11.346;2022-10-17T14:28:47;19.23;;;13.38;;
11427;SDS011;5770;44.504;11.346;2022-10-17T14:31:25;16.67;;;12.02;;
11427;SDS011;5770;44.504;11.346;2022-10-17T14:33:57;25.40;;;12.68;;
11427;SDS011;5770;44.504;11.346;2022-10-17T14:36:36;23.42;;;11.82;;
11427;SDS011;5770;44.504;11.346;2022-10-17T14:39:07;17.02;;;11.77;;
11427;SDS011;5770;44.504;11.346;2022-10-17T14:41:50;14.45;;;11.00;;
11427;SDS011;5770;44.504;11.346;2022-10-17T14:44:21;13.38;;;11.45;;
11427;SDS011;5770;44.504;11.346;2022-10-17T14:46:51;15.07;;;11.73;;
11427;SDS011;5770;44.504;11.346;2022-10-17T14:49:23;18.88;;;11.07;;
11427;SDS011;5770;44.504;11.346;2022-10-17T14:54:51;17.35;;;10.57;;
11427;SDS011;5770;44.504;11.346;2022-10-17T14:57:22;16.23;;;11.02;;
11427;SDS011;5770;44.504;11.346;2022-10-17T14:59:52;12.73;;;10.93;;
11427;SDS011;5770;44.504;11.346;2022-10-17T15:02:20;12.65;;;10.23;;
11427;SDS011;5770;44.504;11.346;2022-10-17T15:04:52;11.80;;;10.00;;
11427;SDS011;5770;44.504;11.346;2022-10-17T15:07:21;14.43;;;9.88;;
11427;SDS011;5770;44.504;11.346;2022-10-17T15:09:51;15.85;;;11.05;;
11427;SDS011;5770;44.504;11.346;2022-10-17T15:12:19;12.15;;;9.85;;
11427;SDS011;5770;44.504;11.346;2022-10-17T15:14:47;14.98;;;9.30;;
11427;SDS011;5770;44.504;11.346;2022-10-17T15:17:17;15.65;;;9.65;;
11427;SDS011;5770;44.504;11.346;2022-10-17T15:19:48;13.10;;;10.18;;
11427;SDS011;5770;44.504;11.346;2022-10-17T15:22:17;17.10;;;9.52;;
11427;SDS011;5770;44.504;11.346;2022-10-17T15:24:45;14.15;;;10.18;;